createdAt,value
2023-04-27T00:01:25.140Z,11.88
2023-04-27T00:03:52.026Z,11.77
2023-04-27T00:06:18.962Z,11.73
2023-04-27T00:08:45.639Z,11.40
2023-04-27T00:11:12.165Z,11.80
2023-04-27T00:13:38.733Z,11.18
2023-04-27T00:16:06.152Z,11.15
2023-04-27T00:18:33.210Z,10.30
2023-04-27T00:21:03.564Z,10.82
2023-04-27T00:23:30.204Z,10.73
2023-04-27T00:25:56.807Z,10.88
2023-04-27T00:28:24.695Z,11.40
2023-04-27T00:30:54.398Z,10.55
2023-04-27T00:33:21.783Z,11.20
2023-04-27T00:35:48.637Z,10.98
2023-04-27T00:38:18.487Z,10.20
2023-04-27T00:40:45.857Z,10.38
2023-04-27T00:43:12.566Z,11.75
2023-04-27T00:45:45.545Z,11.25
2023-04-27T00:48:15.400Z,10.55
2023-04-27T00:50:42.245Z,11.23
2023-04-27T00:53:08.968Z,11.48
2023-04-27T00:55:35.902Z,10.70
2023-04-27T00:58:02.507Z,11.60
2023-04-27T01:00:29.227Z,11.10
2023-04-27T01:02:56.117Z,10.07
2023-04-27T01:05:25.606Z,12.00
2023-04-27T01:07:55.422Z,11.35
2023-04-27T01:10:23.924Z,10.05
2023-04-27T01:12:50.858Z,10.95
2023-04-27T01:15:23.761Z,10.77
2023-04-27T01:17:57.804Z,10.93
2023-04-27T01:20:33.510Z,9.65
2023-04-27T01:23:00.228Z,9.77
2023-04-27T01:25:27.136Z,9.25
2023-04-27T01:27:54.521Z,8.43
2023-04-27T01:30:28.660Z,10.32
2023-04-27T01:32:55.315Z,11.10
2023-04-27T01:35:39.754Z,11.23
2023-04-27T01:38:08.992Z,10.82
2023-04-27T01:40:36.080Z,11.55
2023-04-27T01:43:06.306Z,11.25
2023-04-27T01:45:32.937Z,12.10
2023-04-27T01:48:02.890Z,11.50
2023-04-27T01:50:29.497Z,12.02
2023-04-27T01:52:56.261Z,11.57
2023-04-27T01:55:23.662Z,11.25
2023-04-27T01:57:50.200Z,11.68
2023-04-27T02:00:17.949Z,10.75
2023-04-27T02:02:45.821Z,11.73
2023-04-27T02:05:12.650Z,11.35
2023-04-27T02:07:39.505Z,11.27
2023-04-27T02:10:07.139Z,11.73
2023-04-27T02:12:39.962Z,11.38
2023-04-27T02:15:07.269Z,11.05
2023-04-27T02:17:37.008Z,12.70
2023-04-27T02:20:13.163Z,11.85
2023-04-27T02:22:44.685Z,12.02
2023-04-27T02:25:14.593Z,12.93
2023-04-27T02:27:41.543Z,11.60
2023-04-27T02:30:11.890Z,11.85
2023-04-27T02:32:40.342Z,12.95
2023-04-27T02:35:08.204Z,12.85
2023-04-27T02:37:42.299Z,13.77
2023-04-27T02:40:18.994Z,12.68
2023-04-27T02:42:45.587Z,13.07
2023-04-27T02:45:17.694Z,12.68
2023-04-27T02:47:44.430Z,12.15
2023-04-27T02:50:19.556Z,13.13
2023-04-27T02:52:46.109Z,12.23
2023-04-27T02:55:19.730Z,13.18
2023-04-27T02:57:46.925Z,13.98
2023-04-27T03:00:13.899Z,13.57
2023-04-27T03:02:40.893Z,14.48
2023-04-27T03:05:07.941Z,13.95
2023-04-27T03:07:34.496Z,14.25
2023-04-27T03:10:01.173Z,13.45
2023-04-27T03:12:27.780Z,13.25
2023-04-27T03:14:54.540Z,13.52
2023-04-27T03:17:21.171Z,13.43
2023-04-27T03:19:52.045Z,12.82
2023-04-27T03:22:19.030Z,12.90
2023-04-27T03:24:45.630Z,11.52
2023-04-27T03:27:12.493Z,12.27
2023-04-27T03:29:39.157Z,12.05
2023-04-27T03:32:06.584Z,12.27
2023-04-27T03:34:39.892Z,12.43
2023-04-27T03:37:06.445Z,12.85
2023-04-27T03:39:32.984Z,11.73
2023-04-27T03:41:59.549Z,11.95
2023-04-27T03:44:26.168Z,10.80
2023-04-27T03:46:52.730Z,11.18
2023-04-27T03:49:19.264Z,10.02
2023-04-27T03:51:47.150Z,9.55
2023-04-27T03:54:13.829Z,9.35
2023-04-27T03:56:40.721Z,8.45
2023-04-27T03:59:10.394Z,8.45
2023-04-27T04:01:37.525Z,8.57
2023-04-27T04:04:04.334Z,8.68
2023-04-27T04:06:31.243Z,7.80
2023-04-27T04:08:58.340Z,9.02
2023-04-27T04:11:24.956Z,9.00
2023-04-27T04:13:51.716Z,9.85
2023-04-27T04:16:18.388Z,9.30
2023-04-27T04:18:45.051Z,10.60
2023-04-27T04:21:11.881Z,10.40
2023-04-27T04:23:41.239Z,10.35
2023-04-27T04:26:12.322Z,10.50
2023-04-27T04:28:39.003Z,10.43
2023-04-27T04:31:06.690Z,10.45
2023-04-27T04:33:33.969Z,10.50
2023-04-27T04:36:04.237Z,10.38
2023-04-27T04:38:30.923Z,9.85
2023-04-27T04:40:57.864Z,10.75
2023-04-27T04:43:25.005Z,11.35
2023-04-27T04:45:51.993Z,10.50
2023-04-27T04:48:22.796Z,10.68
2023-04-27T04:50:53.012Z,10.15
2023-04-27T04:53:19.682Z,9.48
2023-04-27T04:55:49.450Z,9.88
2023-04-27T04:58:16.338Z,9.35
2023-04-27T05:00:48.379Z,9.52
2023-04-27T05:03:17.213Z,17.20
2023-04-27T05:05:46.740Z,10.10
2023-04-27T05:08:31.887Z,8.55
2023-04-27T05:10:59.878Z,8.43
2023-04-27T05:13:26.990Z,7.75
2023-04-27T05:15:53.822Z,7.80
2023-04-27T05:18:41.181Z,5.50
2023-04-27T05:21:34.307Z,6.07
2023-04-27T05:24:02.995Z,5.97
2023-04-27T05:26:29.744Z,7.32
2023-04-27T05:28:56.304Z,5.75
2023-04-27T05:31:22.906Z,6.22
2023-04-27T05:33:49.563Z,7.00
2023-04-27T05:36:16.170Z,6.95
2023-04-27T05:38:43.537Z,7.18
2023-04-27T05:41:11.611Z,7.13
2023-04-27T05:43:55.301Z,6.65
2023-04-27T05:46:33.115Z,6.82
2023-04-27T05:49:16.397Z,6.35
2023-04-27T05:51:44.521Z,6.18
2023-04-27T05:54:15.154Z,6.05
2023-04-27T05:56:41.743Z,5.35
2023-04-27T05:59:08.429Z,5.68
2023-04-27T06:01:39.626Z,6.43
2023-04-27T06:04:08.375Z,5.90
2023-04-27T06:06:40.137Z,5.55
2023-04-27T06:09:10.571Z,6.22
2023-04-27T06:11:38.335Z,5.90
2023-04-27T06:14:04.882Z,6.82
2023-04-27T06:16:31.725Z,7.13
2023-04-27T06:18:58.588Z,6.90
2023-04-27T06:21:25.335Z,7.85
2023-04-27T06:23:52.053Z,8.18
2023-04-27T06:26:21.188Z,8.48
2023-04-27T06:28:48.155Z,10.02
2023-04-27T06:31:15.289Z,7.80
2023-04-27T06:33:42.038Z,9.57
2023-04-27T06:36:10.177Z,9.00
2023-04-27T06:38:37.659Z,8.55
2023-04-27T06:41:08.246Z,9.73
2023-04-27T06:43:34.821Z,9.68
2023-04-27T06:46:10.599Z,11.63
2023-04-27T06:48:38.803Z,11.43
2023-04-27T06:51:09.298Z,12.18
2023-04-27T06:53:39.104Z,12.55
2023-04-27T06:56:18.014Z,13.82
2023-04-27T06:58:44.989Z,14.88
2023-04-27T07:01:11.817Z,12.93
2023-04-27T07:03:54.251Z,12.90
2023-04-27T07:06:26.881Z,12.85
2023-04-27T07:09:10.459Z,13.40
2023-04-27T07:11:44.774Z,13.15
2023-04-27T07:14:11.611Z,12.77
2023-04-27T07:16:38.938Z,12.50
2023-04-27T07:19:05.688Z,13.73
2023-04-27T07:21:42.028Z,14.70
2023-04-27T07:24:10.716Z,13.65
2023-04-27T07:26:37.688Z,13.77
2023-04-27T07:29:14.395Z,14.70
2023-04-27T07:31:41.316Z,14.45
2023-04-27T07:34:11.377Z,13.55
2023-04-27T07:36:42.489Z,14.68
2023-04-27T07:39:09.317Z,13.70
2023-04-27T07:41:41.162Z,14.82
2023-04-27T07:46:36.004Z,15.52
2023-04-27T07:49:08.912Z,15.30
2023-04-27T07:51:45.212Z,15.65
2023-04-27T07:54:15.849Z,16.33
2023-04-27T07:56:43.438Z,15.07
2023-04-27T07:59:10.236Z,15.50
2023-04-27T08:01:38.108Z,15.45
2023-04-27T08:04:05.379Z,17.23
2023-04-27T08:06:32.532Z,16.38
2023-04-27T08:09:00.941Z,18.08
2023-04-27T08:11:28.575Z,17.42
2023-04-27T08:13:55.536Z,19.38
2023-04-27T08:16:28.538Z,17.20
2023-04-27T08:18:58.592Z,17.95
2023-04-27T08:21:28.549Z,17.30
2023-04-27T08:23:55.398Z,17.67
2023-04-27T08:26:23.447Z,16.85
2023-04-27T08:28:53.711Z,19.15
2023-04-27T08:31:20.682Z,16.45
2023-04-27T08:33:47.411Z,17.17
2023-04-27T08:36:14.179Z,19.23
2023-04-27T08:38:43.547Z,18.70
2023-04-27T08:41:20.815Z,16.92
2023-04-27T08:43:53.468Z,19.05
2023-04-27T08:46:27.150Z,18.13
2023-04-27T08:48:54.541Z,18.20
2023-04-27T08:51:22.701Z,17.85
2023-04-27T08:53:51.630Z,17.70
2023-04-27T08:56:27.674Z,17.70
2023-04-27T08:58:59.108Z,16.48
2023-04-27T09:01:28.009Z,16.05
2023-04-27T09:04:00.286Z,16.63
2023-04-27T09:06:39.878Z,17.35
2023-04-27T09:09:15.654Z,17.25
2023-04-27T09:11:42.339Z,16.08
2023-04-27T09:14:17.799Z,24.45
2023-04-27T09:16:44.845Z,15.50
2023-04-27T09:19:12.055Z,16.92
2023-04-27T09:21:39.044Z,15.00
2023-04-27T09:24:13.443Z,16.05
2023-04-27T09:26:40.900Z,14.38
2023-04-27T09:29:17.052Z,13.15
2023-04-27T09:31:43.923Z,13.60
2023-04-27T09:34:10.648Z,13.32
2023-04-27T09:36:38.121Z,11.10
2023-04-27T09:39:05.476Z,12.27
2023-04-27T09:41:36.405Z,11.18
2023-04-27T09:44:03.881Z,11.95
2023-04-27T09:46:36.218Z,10.48
2023-04-27T09:49:06.994Z,10.85
2023-04-27T09:51:36.908Z,10.13
2023-04-27T09:54:17.007Z,8.75
2023-04-27T09:57:08.888Z,8.48
2023-04-27T10:02:42.983Z,7.40
2023-04-27T10:05:53.009Z,7.03
2023-04-27T10:08:21.924Z,7.15
2023-04-27T10:10:49.408Z,5.88
2023-04-27T10:13:29.447Z,7.10
2023-04-27T10:15:57.999Z,6.50
2023-04-27T10:18:33.179Z,5.28
2023-04-27T10:21:13.470Z,7.35
2023-04-27T10:23:54.651Z,6.60
2023-04-27T10:26:27.937Z,4.97
2023-04-27T10:28:59.694Z,4.55
2023-04-27T10:31:30.275Z,4.40
2023-04-27T10:34:14.251Z,4.27
2023-04-27T10:36:43.717Z,4.53
2023-04-27T10:39:18.963Z,6.05
2023-04-27T10:41:55.058Z,3.88
2023-04-27T10:44:30.924Z,5.00
2023-04-27T10:47:24.292Z,5.82
2023-04-27T10:49:56.895Z,5.10
2023-04-27T10:52:23.660Z,4.22
2023-04-27T10:54:50.374Z,4.75
2023-04-27T10:57:31.746Z,4.63
2023-04-27T11:00:02.015Z,3.58
2023-04-27T11:02:29.739Z,4.18
2023-04-27T11:04:57.590Z,4.68
2023-04-27T11:07:30.132Z,4.20
2023-04-27T11:09:57.019Z,5.28
2023-04-27T11:12:26.337Z,5.53
2023-04-27T11:14:58.900Z,5.60
2023-04-27T11:17:33.415Z,6.45
2023-04-27T11:20:04.228Z,6.72
2023-04-27T11:22:30.769Z,6.63
2023-04-27T11:25:10.417Z,6.15
2023-04-27T11:27:41.350Z,5.97
2023-04-27T11:30:19.376Z,5.57
2023-04-27T11:32:46.207Z,5.28
2023-04-27T11:35:28.228Z,7.05
2023-04-27T11:38:12.394Z,5.75
2023-04-27T11:40:43.572Z,5.68
2023-04-27T11:43:28.034Z,5.65
2023-04-27T11:45:58.365Z,6.10
2023-04-27T11:48:25.558Z,5.88
2023-04-27T11:50:53.429Z,5.78
2023-04-27T11:53:34.846Z,4.78
2023-04-27T11:56:02.751Z,5.30
2023-04-27T11:58:30.411Z,5.53
2023-04-27T12:00:58.157Z,6.00
2023-04-27T12:03:26.250Z,5.35
2023-04-27T12:06:11.636Z,18.40
2023-04-27T12:08:51.581Z,5.82
2023-04-27T12:11:18.712Z,4.75
2023-04-27T12:13:47.480Z,4.50
2023-04-27T12:16:14.325Z,9.00
2023-04-27T12:18:41.208Z,5.18
2023-04-27T12:21:08.498Z,5.88
2023-04-27T12:23:38.074Z,3.90
2023-04-27T12:26:05.315Z,3.40
2023-04-27T12:28:31.983Z,3.17
2023-04-27T12:30:58.958Z,3.28
2023-04-27T12:33:26.324Z,2.78
2023-04-27T12:35:53.825Z,2.97
2023-04-27T12:38:22.387Z,3.20
2023-04-27T12:40:49.596Z,3.20
2023-04-27T12:43:16.334Z,3.30
2023-04-27T12:45:45.484Z,3.33
2023-04-27T12:48:12.482Z,3.03
2023-04-27T12:50:39.078Z,3.70
2023-04-27T12:53:05.657Z,3.47
2023-04-27T12:55:35.247Z,4.13
2023-04-27T12:58:02.904Z,3.80
2023-04-27T13:00:30.035Z,3.33
2023-04-27T13:03:01.038Z,4.00
2023-04-27T13:05:30.422Z,3.45
2023-04-27T13:07:58.727Z,3.00
2023-04-27T13:10:29.863Z,4.03
2023-04-27T13:12:57.820Z,3.25
2023-04-27T13:15:24.536Z,4.30
2023-04-27T13:17:54.846Z,2.80
2023-04-27T13:20:22.187Z,3.03
2023-04-27T13:22:48.707Z,2.83
2023-04-27T13:25:16.899Z,2.50
2023-04-27T13:27:43.694Z,3.25
2023-04-27T13:30:10.669Z,2.30
2023-04-27T13:32:37.541Z,3.58
2023-04-27T13:35:07.840Z,2.28
2023-04-27T13:37:34.529Z,2.47
2023-04-27T13:40:01.679Z,3.70
2023-04-27T13:42:29.678Z,3.60
2023-04-27T13:44:59.221Z,3.22
2023-04-27T13:47:29.405Z,3.47
2023-04-27T13:49:56.236Z,2.70
2023-04-27T13:52:28.345Z,3.08
2023-04-27T13:54:57.089Z,3.22
2023-04-27T13:57:26.979Z,3.33
2023-04-27T13:59:54.686Z,2.58
2023-04-27T14:02:24.809Z,3.08
2023-04-27T14:04:51.820Z,3.20
2023-04-27T14:07:20.909Z,3.63
2023-04-27T14:09:58.824Z,2.45
2023-04-27T14:12:25.690Z,2.40
2023-04-27T14:14:58.669Z,2.80
2023-04-27T14:17:33.418Z,2.78
2023-04-27T14:20:10.341Z,2.20
2023-04-27T14:22:37.285Z,2.00
2023-04-27T14:25:04.473Z,1.98
2023-04-27T14:27:33.328Z,1.85
2023-04-27T14:30:03.951Z,1.85
2023-04-27T14:32:30.560Z,1.77
2023-04-27T14:34:57.449Z,2.00
2023-04-27T14:37:24.192Z,1.80
2023-04-27T14:39:50.955Z,1.80
2023-04-27T14:42:17.664Z,1.85
2023-04-27T14:44:48.113Z,2.00
2023-04-27T14:47:19.801Z,1.98
2023-04-27T14:49:57.887Z,1.80
2023-04-27T14:52:25.548Z,2.00
2023-04-27T14:54:52.143Z,1.55
2023-04-27T14:57:23.852Z,1.75
2023-04-27T14:59:57.135Z,2.05
2023-04-27T15:02:36.200Z,2.28
2023-04-27T15:05:04.319Z,1.98
2023-04-27T15:07:32.822Z,2.10
2023-04-27T15:09:59.731Z,2.00
2023-04-27T15:12:26.469Z,1.63
2023-04-27T15:14:58.506Z,1.65
2023-04-27T15:17:26.202Z,1.80
2023-04-27T15:19:53.068Z,2.10
2023-04-27T15:22:26.559Z,2.05
2023-04-27T15:24:54.699Z,1.90
2023-04-27T15:27:21.171Z,1.80
2023-04-27T15:29:53.202Z,2.00
2023-04-27T15:32:21.165Z,1.70
2023-04-27T15:34:48.157Z,1.58
2023-04-27T15:37:14.758Z,1.50
2023-04-27T15:39:42.221Z,1.95
2023-04-27T15:42:08.788Z,1.75
2023-04-27T15:44:36.021Z,1.27
2023-04-27T15:47:05.114Z,1.48
2023-04-27T15:49:34.444Z,1.50
2023-04-27T15:52:06.768Z,1.70
2023-04-27T15:54:35.991Z,1.35
2023-04-27T15:57:04.203Z,1.45
2023-04-27T15:59:31.331Z,1.63
2023-04-27T16:01:58.421Z,1.63
2023-04-27T16:04:27.689Z,1.58
2023-04-27T16:06:55.071Z,1.52
2023-04-27T16:09:23.609Z,1.63
2023-04-27T16:11:59.384Z,1.83
2023-04-27T16:14:30.176Z,1.40
2023-04-27T16:19:36.016Z,1.58
2023-04-27T16:22:06.422Z,1.63
2023-04-27T16:24:35.286Z,1.42
2023-04-27T16:27:03.827Z,1.73
2023-04-27T16:29:48.988Z,1.60
2023-04-27T16:32:17.318Z,1.60
2023-04-27T16:34:53.810Z,1.20
2023-04-27T16:37:20.917Z,1.40
2023-04-27T16:39:47.606Z,1.48
2023-04-27T16:42:19.984Z,3.97
2023-04-27T16:44:49.881Z,1.67
2023-04-27T16:47:19.400Z,1.30
2023-04-27T16:49:46.015Z,2.25
2023-04-27T16:52:15.237Z,1.70
2023-04-27T16:54:41.782Z,1.50
2023-04-27T16:57:08.488Z,2.22
2023-04-27T16:59:37.797Z,1.52
2023-04-27T17:02:17.004Z,1.90
2023-04-27T17:04:54.895Z,2.10
2023-04-27T17:07:21.789Z,1.30
2023-04-27T17:09:51.803Z,1.88
2023-04-27T17:12:18.388Z,1.52
2023-04-27T17:14:45.318Z,1.48
2023-04-27T17:17:12.835Z,2.30
2023-04-27T17:19:39.821Z,1.52
2023-04-27T17:22:08.638Z,1.45
2023-04-27T17:24:35.323Z,1.30
2023-04-27T17:27:10.749Z,1.60
2023-04-27T17:29:38.214Z,1.90
2023-04-27T17:32:05.844Z,1.63
2023-04-27T17:34:34.945Z,2.00
2023-04-27T17:37:02.029Z,2.03
2023-04-27T17:39:28.869Z,1.80
2023-04-27T17:41:58.161Z,2.17
2023-04-27T17:44:25.091Z,1.80
2023-04-27T17:47:08.406Z,1.88
2023-04-27T17:49:53.210Z,2.00
2023-04-27T17:52:39.055Z,1.65
2023-04-27T17:55:27.091Z,2.00
2023-04-27T17:58:04.204Z,1.80
2023-04-27T18:00:45.915Z,2.20
2023-04-27T18:05:48.959Z,2.15
2023-04-27T18:08:15.955Z,1.73
2023-04-27T18:10:42.606Z,1.83
2023-04-27T18:13:09.507Z,1.80
2023-04-27T18:15:45.742Z,1.92
2023-04-27T18:18:16.999Z,2.08
2023-04-27T18:20:44.965Z,1.98
2023-04-27T18:23:11.769Z,2.30
2023-04-27T18:25:43.680Z,1.70
2023-04-27T18:28:10.415Z,2.30
2023-04-27T18:30:37.145Z,1.55
2023-04-27T18:33:08.326Z,2.20
2023-04-27T18:35:35.517Z,1.98
2023-04-27T18:38:03.483Z,2.35
2023-04-27T18:40:30.703Z,2.50
2023-04-27T18:43:02.270Z,1.98
2023-04-27T18:45:40.911Z,2.08
2023-04-27T18:48:25.808Z,2.38
2023-04-27T18:50:57.357Z,2.35
2023-04-27T18:53:24.162Z,2.00
2023-04-27T18:55:51.038Z,2.38
2023-04-27T18:58:17.835Z,2.15
2023-04-27T19:00:44.398Z,2.30
2023-04-27T19:03:16.841Z,2.22
2023-04-27T19:05:47.948Z,2.55
2023-04-27T19:08:16.810Z,2.45
2023-04-27T19:10:43.405Z,2.80
2023-04-27T19:13:10.446Z,2.65
2023-04-27T19:15:39.361Z,2.70
2023-04-27T19:18:10.413Z,2.72
2023-04-27T19:20:39.002Z,2.10
2023-04-27T19:23:05.922Z,2.55
2023-04-27T19:25:32.584Z,2.90
2023-04-27T19:28:03.851Z,2.88
2023-04-27T19:30:39.134Z,2.70
2023-04-27T19:33:06.671Z,3.05
2023-04-27T19:35:33.312Z,2.50
2023-04-27T19:38:01.436Z,3.15
2023-04-27T19:40:28.510Z,3.40
2023-04-27T19:42:55.594Z,3.17
2023-04-27T19:45:28.678Z,3.00
2023-04-27T19:48:00.747Z,3.28
2023-04-27T19:50:31.240Z,3.70
2023-04-27T19:53:09.436Z,3.65
2023-04-27T19:55:37.248Z,3.42
2023-04-27T19:58:06.837Z,3.58
2023-04-27T20:00:34.404Z,4.15
2023-04-27T20:03:10.815Z,3.17
2023-04-27T20:05:38.685Z,4.10
2023-04-27T20:08:06.397Z,3.55
2023-04-27T20:10:40.539Z,3.60
2023-04-27T20:13:08.451Z,3.50
2023-04-27T20:15:42.270Z,3.00
2023-04-27T20:18:20.113Z,3.72
2023-04-27T20:20:47.391Z,4.00
2023-04-27T20:23:14.082Z,4.03
2023-04-27T20:25:41.182Z,4.03
2023-04-27T20:28:07.859Z,4.00
2023-04-27T20:30:48.137Z,4.32
2023-04-27T20:33:15.505Z,4.22
2023-04-27T20:35:42.833Z,4.47
2023-04-27T20:38:13.188Z,4.25
2023-04-27T20:40:42.105Z,4.03
2023-04-27T20:43:09.899Z,4.82
2023-04-27T20:45:36.655Z,4.18
2023-04-27T20:48:11.431Z,4.07
2023-04-27T20:50:41.058Z,4.38
2023-04-27T20:53:07.759Z,4.65
2023-04-27T20:55:34.585Z,4.75
2023-04-27T20:58:03.438Z,4.55
2023-04-27T21:00:30.320Z,4.90
2023-04-27T21:02:57.076Z,5.32
2023-04-27T21:05:23.811Z,6.40
2023-04-27T21:07:50.684Z,5.82
2023-04-27T21:10:17.324Z,6.28
2023-04-27T21:12:44.290Z,5.53
2023-04-27T21:15:11.091Z,4.93
2023-04-27T21:17:38.530Z,5.55
2023-04-27T21:20:09.922Z,5.97
2023-04-27T21:22:37.166Z,5.47
2023-04-27T21:25:04.781Z,5.68
2023-04-27T21:27:31.877Z,5.65
2023-04-27T21:29:59.263Z,5.70
2023-04-27T21:32:28.915Z,5.55
2023-04-27T21:35:05.743Z,6.07
2023-04-27T21:37:33.152Z,6.18
2023-04-27T21:39:59.960Z,5.85
2023-04-27T21:42:33.400Z,5.38
2023-04-27T21:45:04.405Z,6.50
2023-04-27T21:47:31.269Z,5.70
2023-04-27T21:49:57.966Z,6.10
2023-04-27T21:52:24.771Z,6.07
2023-04-27T21:54:51.648Z,6.40
2023-04-27T21:57:20.924Z,6.10
2023-04-27T21:59:56.008Z,5.93
2023-04-27T22:02:22.732Z,6.00
2023-04-27T22:04:51.484Z,6.80
2023-04-27T22:07:18.801Z,6.07
2023-04-27T22:09:49.160Z,6.55
2023-04-27T22:12:19.695Z,7.15
2023-04-27T22:14:50.765Z,7.47
2023-04-27T22:17:22.434Z,7.38
2023-04-27T22:19:55.594Z,7.53
2023-04-27T22:22:25.137Z,7.35
2023-04-27T22:24:51.812Z,7.38
2023-04-27T22:27:18.557Z,7.40
2023-04-27T22:29:55.565Z,8.13
2023-04-27T22:32:23.727Z,7.15
2023-04-27T22:34:50.740Z,8.18
2023-04-27T22:37:17.229Z,7.05
2023-04-27T22:39:44.052Z,7.60
2023-04-27T22:42:10.684Z,8.00
2023-04-27T22:44:37.501Z,7.85
2023-04-27T22:47:07.108Z,9.45
2023-04-27T22:49:34.668Z,9.13
2023-04-27T22:52:08.055Z,7.60
2023-04-27T22:54:34.824Z,9.20
2023-04-27T22:57:02.710Z,9.55
2023-04-27T22:59:31.251Z,10.55
2023-04-27T23:01:58.726Z,11.13
2023-04-27T23:04:26.703Z,11.05
2023-04-27T23:06:53.848Z,10.32
2023-04-27T23:09:29.736Z,10.52
2023-04-27T23:12:01.544Z,11.40
2023-04-27T23:17:03.647Z,11.00
2023-04-27T23:19:37.182Z,9.15
2023-04-27T23:22:03.996Z,10.55
2023-04-27T23:24:30.876Z,10.15
2023-04-27T23:27:04.513Z,10.68
2023-04-27T23:29:31.421Z,9.32
2023-04-27T23:32:04.701Z,9.25
2023-04-27T23:34:32.932Z,9.73
2023-04-27T23:37:00.287Z,9.45
2023-04-27T23:39:27.927Z,8.85
2023-04-27T23:41:54.416Z,10.13
2023-04-27T23:44:21.529Z,8.80
2023-04-27T23:46:48.113Z,9.50
2023-04-27T23:49:14.722Z,7.97
2023-04-27T23:51:41.556Z,7.93
2023-04-27T23:54:08.281Z,7.60
2023-04-27T23:56:34.910Z,8.02
2023-04-27T23:59:03.359Z,7.50
